This is the latest recevied weather packets stored in our database for station/object KY4EF. If no packets are shown the sender has not sent any weather packets the latest 10 day(s).
| Time | Temp. | Humidity | Pressure | Rain* | Wind** | Luminosity | Snow |
|---|---|---|---|---|---|---|---|
| 1777653146 | 20° C | 40% | 1012.4 hPa | 0 mm | - | 258 W/m² | - |
| 1777652842 | 20.56° C | 44% | 1012.7 hPa | 0 mm | - | 254 W/m² | - |
| 1777652538 | 20.56° C | 39% | 1012.7 hPa | 0 mm | - | 537 W/m² | - |
| 1777652236 | 20.56° C | 39% | 1012.5 hPa | 0 mm | - | 760 W/m² | - |
| 1777651933 | 20.56° C | 41% | 1012.5 hPa | 0 mm | - | 760 W/m² | - |
| 1777651630 | 18.89° C | 43% | 1012.6 hPa | 0 mm | - | 354 W/m² | - |
| 1777651326 | 20.56° C | 41% | 1012.6 hPa | 0 mm | - | 419 W/m² | - |
| 1777651023 | 21.67° C | 38% | 1012.6 hPa | 0 mm | - | 858 W/m² | - |
| 1777650720 | 20° C | 41% | 1012.8 hPa | 0 mm | - | 748 W/m² | - |
| 1777650417 | 20.56° C | 43% | 1012.8 hPa | 0 mm | - | 742 W/m² | - |
| 1777650114 | 21.11° C | 42% | 1013 hPa | 0 mm | - | 697 W/m² | - |
| 1777649812 | 21.67° C | 39% | 1012.8 hPa | 0 mm | - | 664 W/m² | - |
| 1777649509 | 22.78° C | 36% | 1013.1 hPa | 0 mm | - | 457 W/m² | - |
| 1777649205 | 21.67° C | 40% | 1012.8 hPa | 0 mm | - | 402 W/m² | - |
| 1777648902 | 20.56° C | 43% | 1013.1 hPa | 0 mm | - | 496 W/m² | - |
| 1777648599 | 21.11° C | 42% | 1013.2 hPa | 0 mm | - | 545 W/m² | - |
| 1777648296 | 20.56° C | 41% | 1013.2 hPa | 0 mm | - | 495 W/m² | - |
| 1777647992 | 21.67° C | 41% | 1013 hPa | 0 mm | - | 283 W/m² | - |
| 1777647688 | 20° C | 44% | 1013.2 hPa | 0 mm | - | 401 W/m² | - |
| 1777647385 | 18.89° C | 46% | 1013 hPa | 0 mm | - | 335 W/m² | - |
| 1777647083 | 18.89° C | 46% | 1013.1 hPa | 0 mm | - | 481 W/m² | - |
| 1777646779 | 17.78° C | 53% | 1013.2 hPa | 0 mm | - | 526 W/m² | - |
| 1777646479 | 18.33° C | 57% | 1013.1 hPa | 0 mm | - | 463 W/m² | - |
| 1777646175 | 17.22° C | 58% | 1013 hPa | 0 mm | - | 432 W/m² | - |
| 1777645872 | 17.78° C | 51% | 1012.9 hPa | 0 mm | - | 469 W/m² | - |
* Rain latest hour (hover to see other rain measurements)
** Current wind speed in m/s (hover to see current wind gust speed)